createdAt,value
2017-08-24T00:00:53.945Z,100180.20
2017-08-24T00:03:21.606Z,100178.12
2017-08-24T00:05:49.510Z,100175.58
2017-08-24T00:08:17.176Z,100173.70
2017-08-24T00:10:45.034Z,100172.10
2017-08-24T00:13:12.878Z,100173.86
2017-08-24T00:15:40.743Z,100174.80
2017-08-24T00:18:08.439Z,100177.52
2017-08-24T00:20:36.283Z,100180.65
2017-08-24T00:23:03.860Z,100181.80
2017-08-24T00:25:31.633Z,100174.64
2017-08-24T00:27:59.483Z,100179.00
2017-08-24T00:30:27.201Z,100175.67
2017-08-24T00:32:55.192Z,100171.09
2017-08-24T00:35:22.888Z,100173.09
2017-08-24T00:37:50.758Z,100172.64
2017-08-24T00:40:18.831Z,100177.55
2017-08-24T00:42:46.653Z,100181.31
2017-08-24T00:45:14.473Z,100184.28
2017-08-24T00:47:42.296Z,100178.97
2017-08-24T00:50:10.295Z,100189.37
2017-08-24T00:52:38.026Z,100190.66
2017-08-24T00:55:05.813Z,100181.91
2017-08-24T00:57:33.655Z,100179.02
2017-08-24T01:00:01.475Z,100185.21
2017-08-24T01:02:29.427Z,100186.17
2017-08-24T01:04:57.261Z,100179.86
2017-08-24T01:07:24.957Z,100181.30
2017-08-24T01:09:52.601Z,100182.44
2017-08-24T01:12:20.461Z,100178.83
2017-08-24T01:14:48.147Z,100174.39
2017-08-24T01:17:15.791Z,100173.81
2017-08-24T01:19:43.375Z,100169.91
2017-08-24T01:22:11.322Z,100172.30
2017-08-24T01:24:39.033Z,100177.64
2017-08-24T01:27:06.736Z,100170.58
2017-08-24T01:29:34.702Z,100171.58
2017-08-24T01:32:02.396Z,100167.40
2017-08-24T01:34:30.112Z,100167.27
2017-08-24T01:36:57.709Z,100172.19
2017-08-24T01:39:25.772Z,100169.41
2017-08-24T01:41:53.636Z,100169.59
2017-08-24T01:44:21.498Z,100167.45
2017-08-24T01:46:57.145Z,100169.56
2017-08-24T01:49:24.864Z,100167.09
2017-08-24T01:51:52.702Z,100169.45
2017-08-24T01:54:20.697Z,100176.84
2017-08-24T01:56:48.282Z,100184.29
2017-08-24T01:59:15.897Z,100178.27
2017-08-24T02:01:43.897Z,100176.33
2017-08-24T02:04:11.635Z,100179.37
2017-08-24T02:06:39.296Z,100187.05
2017-08-24T02:09:07.198Z,100192.91
2017-08-24T02:11:35.214Z,100186.86
2017-08-24T02:14:02.895Z,100188.67
2017-08-24T02:16:30.766Z,100193.50
2017-08-24T02:18:58.492Z,100194.42
2017-08-24T02:21:26.293Z,100191.31
2017-08-24T02:23:54.156Z,100188.44
2017-08-24T02:26:21.817Z,100193.20
2017-08-24T02:28:49.478Z,100187.31
2017-08-24T02:31:17.497Z,100186.53
2017-08-24T02:33:45.216Z,100183.48
2017-08-24T02:36:12.873Z,100193.69
2017-08-24T02:38:40.952Z,100190.06
2017-08-24T02:41:08.942Z,100196.74
2017-08-24T02:43:36.791Z,100197.78
2017-08-24T02:46:04.699Z,100205.30
2017-08-24T02:48:32.623Z,100203.72
2017-08-24T02:51:00.270Z,100207.80
2017-08-24T02:53:28.274Z,100206.78
2017-08-24T02:55:56.009Z,100207.45
2017-08-24T02:58:23.670Z,100207.27
2017-08-24T03:00:51.723Z,100203.84
2017-08-24T03:03:19.414Z,100201.55
2017-08-24T03:05:47.259Z,100213.99
2017-08-24T03:08:15.334Z,100216.27
2017-08-24T03:10:43.005Z,100218.19
2017-08-24T03:13:10.835Z,100224.08
2017-08-24T03:15:38.702Z,100227.20
2017-08-24T03:18:06.714Z,100230.66
2017-08-24T03:20:34.437Z,100236.17
2017-08-24T03:23:02.240Z,100232.05
2017-08-24T03:25:32.569Z,100233.21
2017-08-24T03:28:01.034Z,100236.35
2017-08-24T03:30:32.245Z,100235.94
2017-08-24T03:33:00.443Z,100245.27
2017-08-24T03:35:28.137Z,100242.30
2017-08-24T03:37:57.358Z,100242.12
2017-08-24T03:40:25.089Z,100244.08
2017-08-24T03:42:52.969Z,100247.70
2017-08-24T03:45:20.833Z,100249.48
2017-08-24T03:47:48.666Z,100252.00
2017-08-24T03:50:16.535Z,100248.79
2017-08-24T03:52:44.435Z,100253.24
2017-08-24T03:55:12.091Z,100261.52
2017-08-24T03:57:39.692Z,100255.69
2017-08-24T04:00:07.418Z,100259.61
2017-08-24T04:02:35.077Z,100256.85
2017-08-24T04:05:03.581Z,100253.08
2017-08-24T04:07:31.423Z,100252.42
2017-08-24T04:09:59.266Z,100252.32
2017-08-24T04:12:26.955Z,100253.07
2017-08-24T04:14:54.978Z,100252.66
2017-08-24T04:17:22.693Z,100255.45
2017-08-24T04:19:50.341Z,100254.88
2017-08-24T04:22:18.219Z,100255.77
2017-08-24T04:24:46.072Z,100251.15
2017-08-24T04:27:13.939Z,100257.14
2017-08-24T04:29:41.757Z,100249.94
2017-08-24T04:32:09.690Z,100257.30
2017-08-24T04:34:37.537Z,100251.84
2017-08-24T04:37:05.482Z,100257.86
2017-08-24T04:39:33.401Z,100260.83
2017-08-24T04:42:01.362Z,100265.50
2017-08-24T04:44:29.231Z,100263.05
2017-08-24T04:46:56.950Z,100259.84
2017-08-24T04:49:24.966Z,100258.53
2017-08-24T04:51:52.809Z,100259.89
2017-08-24T04:54:20.676Z,100261.00
2017-08-24T04:56:48.359Z,100256.28
2017-08-24T04:59:16.359Z,100269.36
2017-08-24T05:01:44.203Z,100269.84
2017-08-24T05:04:11.918Z,100271.24
2017-08-24T05:06:39.614Z,100268.95
2017-08-24T05:09:07.427Z,100267.97
2017-08-24T05:11:35.271Z,100268.39
2017-08-24T05:14:03.017Z,100267.34
2017-08-24T05:16:30.852Z,100271.89
2017-08-24T05:18:58.718Z,100268.49
2017-08-24T05:21:26.525Z,100270.04
2017-08-24T05:23:54.331Z,100270.04
2017-08-24T05:26:22.354Z,100264.19
2017-08-24T05:28:50.341Z,100276.72
2017-08-24T05:31:18.160Z,100273.22
2017-08-24T05:33:46.018Z,100282.56
2017-08-24T05:36:13.890Z,100282.23
2017-08-24T05:38:41.757Z,100289.14
2017-08-24T05:41:09.550Z,100289.98
2017-08-24T05:43:37.616Z,100291.50
2017-08-24T05:46:05.698Z,100295.79
2017-08-24T05:48:33.550Z,100288.31
2017-08-24T05:51:01.638Z,100288.64
2017-08-24T05:53:29.684Z,100291.78
2017-08-24T05:55:57.551Z,100294.46
2017-08-24T05:58:25.369Z,100290.97
2017-08-24T06:00:53.100Z,100294.19
2017-08-24T06:03:20.952Z,100293.95
2017-08-24T06:05:49.048Z,100294.64
2017-08-24T06:08:16.705Z,100298.09
2017-08-24T06:10:44.367Z,100300.09
2017-08-24T06:13:12.236Z,100303.98
2017-08-24T06:15:39.890Z,100301.38
2017-08-24T06:18:07.730Z,100303.37
2017-08-24T06:20:35.597Z,100302.63
2017-08-24T06:23:03.465Z,100303.16
2017-08-24T06:25:31.362Z,100306.58
2017-08-24T06:27:59.231Z,100300.12
2017-08-24T06:30:27.041Z,100307.02
2017-08-24T06:32:54.970Z,100306.80
2017-08-24T06:35:23.001Z,100312.78
2017-08-24T06:37:50.820Z,100311.56
2017-08-24T06:40:18.567Z,100308.94
2017-08-24T06:42:46.626Z,100314.69
2017-08-24T06:45:14.301Z,100316.66
2017-08-24T06:47:42.165Z,100309.34
2017-08-24T06:50:10.110Z,100310.09
2017-08-24T06:52:37.944Z,100300.41
2017-08-24T06:55:05.563Z,100309.44
2017-08-24T06:57:33.430Z,100306.99
2017-08-24T07:00:01.267Z,100300.39
2017-08-24T07:02:29.088Z,100294.45
2017-08-24T07:04:56.881Z,100297.86
2017-08-24T07:07:24.681Z,100292.83
2017-08-24T07:09:52.421Z,100292.38
2017-08-24T07:12:20.230Z,100298.84
2017-08-24T07:14:48.049Z,100289.72
2017-08-24T07:17:15.732Z,100287.05
2017-08-24T07:19:43.467Z,100294.87
2017-08-24T07:22:11.176Z,100294.69
2017-08-24T07:24:38.752Z,100297.67
2017-08-24T07:27:06.789Z,100303.82
2017-08-24T07:29:34.656Z,100300.41
2017-08-24T07:32:02.524Z,100298.40
2017-08-24T07:34:30.564Z,100293.60
2017-08-24T07:36:58.391Z,100295.94
2017-08-24T07:39:26.328Z,100294.94
2017-08-24T07:41:54.009Z,100293.69
2017-08-24T07:44:21.737Z,100291.70
2017-08-24T07:46:49.540Z,100287.58
2017-08-24T07:49:17.566Z,100287.56
2017-08-24T07:51:45.389Z,100284.05
2017-08-24T07:54:12.983Z,100293.16
2017-08-24T07:56:40.795Z,100292.23
2017-08-24T07:59:08.540Z,100286.39
2017-08-24T08:01:36.381Z,100292.64
2017-08-24T08:04:04.030Z,100289.47
2017-08-24T08:06:31.864Z,100293.60
2017-08-24T08:08:59.709Z,100290.86
2017-08-24T08:11:27.799Z,100295.75
2017-08-24T08:13:55.519Z,100294.32
2017-08-24T08:16:23.541Z,100287.73
2017-08-24T08:18:51.607Z,100293.27
2017-08-24T08:21:19.323Z,100294.87
2017-08-24T08:23:47.338Z,100287.52
2017-08-24T08:26:15.412Z,100291.55
2017-08-24T08:28:43.350Z,100293.28
2017-08-24T08:31:11.145Z,100287.26
2017-08-24T08:33:39.080Z,100292.78
2017-08-24T08:36:06.922Z,100281.77
2017-08-24T08:38:34.951Z,100287.98
2017-08-24T08:41:02.959Z,100288.63
2017-08-24T08:43:30.802Z,100286.33
2017-08-24T08:45:58.551Z,100287.45
2017-08-24T08:48:26.340Z,100286.19
2017-08-24T08:50:54.154Z,100278.66
2017-08-24T08:53:22.001Z,100287.07
2017-08-24T08:55:49.958Z,100293.80
2017-08-24T08:58:17.783Z,100284.23
2017-08-24T09:00:45.615Z,100285.72
2017-08-24T09:03:13.413Z,100278.39
2017-08-24T09:05:41.357Z,100281.28
2017-08-24T09:08:09.107Z,100282.22
2017-08-24T09:10:36.767Z,100285.21
2017-08-24T09:13:04.583Z,100274.95
2017-08-24T09:15:32.427Z,100273.97
2017-08-24T09:18:00.309Z,100282.11
2017-08-24T09:20:27.965Z,100282.98
2017-08-24T09:22:55.802Z,100284.45
2017-08-24T09:25:23.495Z,100275.91
2017-08-24T09:27:51.216Z,100283.15
2017-08-24T09:30:19.244Z,100269.91
2017-08-24T09:32:47.067Z,100278.83
2017-08-24T09:35:14.937Z,100283.91
2017-08-24T09:37:42.625Z,100280.06
2017-08-24T09:40:10.703Z,100281.33
2017-08-24T09:42:38.774Z,100280.35
2017-08-24T09:45:06.638Z,100280.59
2017-08-24T09:47:34.503Z,100286.69
2017-08-24T09:50:02.216Z,100285.45
2017-08-24T09:52:30.037Z,100288.75
2017-08-24T09:54:57.806Z,100286.27
2017-08-24T09:57:25.564Z,100283.98
2017-08-24T09:59:53.415Z,100285.83
2017-08-24T10:02:21.405Z,100275.65
2017-08-24T10:04:49.372Z,100286.88
2017-08-24T10:07:17.237Z,100278.78
2017-08-24T10:09:45.305Z,100268.94
2017-08-24T10:12:12.970Z,100273.72
2017-08-24T10:14:40.992Z,100273.54
2017-08-24T10:17:08.704Z,100264.00
2017-08-24T10:19:36.552Z,100270.11
2017-08-24T10:22:04.419Z,100263.82
2017-08-24T10:24:32.287Z,100258.61
2017-08-24T10:27:00.153Z,100267.16
2017-08-24T10:29:28.076Z,100263.45
2017-08-24T10:31:56.114Z,100258.14
2017-08-24T10:34:23.697Z,100253.74
2017-08-24T10:36:51.500Z,100261.58
2017-08-24T10:39:19.362Z,100263.68
2017-08-24T10:41:47.376Z,100258.28
2017-08-24T10:44:15.225Z,100255.76
2017-08-24T10:46:42.907Z,100256.23
2017-08-24T10:49:10.758Z,100251.19
2017-08-24T10:51:38.608Z,100265.71
2017-08-24T10:54:06.623Z,100255.64
2017-08-24T10:56:34.562Z,100246.41
2017-08-24T10:59:02.230Z,100241.55
2017-08-24T11:01:29.901Z,100247.39
2017-08-24T11:03:57.642Z,100233.77
2017-08-24T11:06:25.429Z,100232.86
2017-08-24T11:08:53.329Z,100230.87
2017-08-24T11:11:22.188Z,100234.89
2017-08-24T11:13:50.034Z,100234.48
2017-08-24T11:16:17.976Z,100233.17
2017-08-24T11:18:45.599Z,100227.95
2017-08-24T11:21:13.314Z,100221.88
2017-08-24T11:23:41.318Z,100224.52
2017-08-24T11:26:09.170Z,100227.39
2017-08-24T11:28:37.037Z,100224.22
2017-08-24T11:31:04.882Z,100217.98
2017-08-24T11:33:32.694Z,100224.27
2017-08-24T11:36:00.307Z,100221.37
2017-08-24T11:38:28.131Z,100225.99
2017-08-24T11:40:55.951Z,100226.33
2017-08-24T11:43:23.918Z,100219.09
2017-08-24T11:45:51.809Z,100219.13
2017-08-24T11:48:19.676Z,100220.52
2017-08-24T11:50:47.543Z,100217.50
2017-08-24T11:53:15.456Z,100211.02
2017-08-24T11:55:43.478Z,100203.20
2017-08-24T11:58:11.346Z,100205.20
2017-08-24T12:00:39.021Z,100204.36
2017-08-24T12:03:06.881Z,100196.24
2017-08-24T12:05:34.599Z,100194.30
2017-08-24T12:08:02.320Z,100189.45
2017-08-24T12:10:30.262Z,100189.67
2017-08-24T12:12:58.127Z,100190.02
2017-08-24T12:15:25.993Z,100184.45
2017-08-24T12:17:53.861Z,100172.17
2017-08-24T12:20:21.728Z,100186.64
2017-08-24T12:22:49.421Z,100177.58
2017-08-24T12:25:17.080Z,100183.25
2017-08-24T12:27:44.809Z,100173.33
2017-08-24T12:30:12.817Z,100182.67
2017-08-24T12:32:40.662Z,100179.00
2017-08-24T12:35:08.531Z,100174.23
2017-08-24T12:37:36.209Z,100181.19
2017-08-24T12:40:04.045Z,100177.02
2017-08-24T12:42:31.946Z,100177.69
2017-08-24T12:44:59.977Z,100173.57
2017-08-24T12:47:27.884Z,100170.45
2017-08-24T12:49:55.813Z,100173.41
2017-08-24T12:52:23.805Z,100172.00
2017-08-24T12:54:51.479Z,100164.09
2017-08-24T12:57:19.538Z,100165.83
2017-08-24T12:59:47.406Z,100172.02
2017-08-24T13:02:15.273Z,100164.57
2017-08-24T13:04:43.140Z,100161.44
2017-08-24T13:07:11.184Z,100170.00
2017-08-24T13:09:39.075Z,100163.62
2017-08-24T13:12:06.962Z,100170.53
2017-08-24T13:14:34.977Z,100173.50
2017-08-24T13:17:02.877Z,100170.93
2017-08-24T13:19:30.744Z,100171.17
2017-08-24T13:21:58.611Z,100162.94
2017-08-24T13:24:26.407Z,100157.15
2017-08-24T13:26:54.224Z,100164.81
2017-08-24T13:29:22.235Z,100164.31
2017-08-24T13:31:50.082Z,100168.33
2017-08-24T13:34:17.947Z,100172.80
2017-08-24T13:36:46.042Z,100164.55
2017-08-24T13:39:13.704Z,100158.41
2017-08-24T13:41:41.430Z,100160.55
2017-08-24T13:44:09.233Z,100167.70
2017-08-24T13:46:36.888Z,100165.61
2017-08-24T13:49:04.725Z,100161.33
2017-08-24T13:51:32.419Z,100157.38
2017-08-24T13:54:00.165Z,100148.91
2017-08-24T13:56:28.104Z,100150.27
2017-08-24T13:58:56.072Z,100152.02
2017-08-24T14:01:23.892Z,100151.84
2017-08-24T14:03:51.730Z,100161.05
2017-08-24T14:06:19.624Z,100163.30
2017-08-24T14:08:47.286Z,100159.66
2017-08-24T14:11:15.132Z,100158.01
2017-08-24T14:13:43.000Z,100160.41
2017-08-24T14:16:10.693Z,100155.28
2017-08-24T14:18:38.411Z,100149.94
2017-08-24T14:21:06.418Z,100149.00
2017-08-24T14:23:34.016Z,100151.93
2017-08-24T14:26:01.862Z,100155.39
2017-08-24T14:28:29.753Z,100159.86
2017-08-24T14:30:57.573Z,100149.57
2017-08-24T14:33:25.388Z,100150.20
2017-08-24T14:35:53.255Z,100152.49
2017-08-24T14:38:21.123Z,100150.67
2017-08-24T14:40:48.943Z,100146.20
2017-08-24T14:43:16.981Z,100149.80
2017-08-24T14:45:44.622Z,100158.63
2017-08-24T14:48:12.338Z,100154.19
2017-08-24T14:50:40.332Z,100160.59
2017-08-24T14:53:08.067Z,100155.65
2017-08-24T14:55:35.940Z,100154.84
2017-08-24T14:58:03.934Z,100146.48
2017-08-24T15:00:31.716Z,100155.73
2017-08-24T15:02:59.536Z,100156.70
2017-08-24T15:05:27.613Z,100157.96
2017-08-24T15:07:55.454Z,100157.09
2017-08-24T15:10:23.132Z,100157.02
2017-08-24T15:12:50.774Z,100154.56
2017-08-24T15:15:18.464Z,100156.52
2017-08-24T15:17:46.126Z,100163.17
2017-08-24T15:20:13.993Z,100158.70
2017-08-24T15:22:41.703Z,100159.17
2017-08-24T15:25:09.727Z,100163.80
2017-08-24T15:27:37.601Z,100161.09
2017-08-24T15:30:05.434Z,100158.02
2017-08-24T15:32:33.329Z,100159.49
2017-08-24T15:35:00.972Z,100157.84
2017-08-24T15:37:28.561Z,100157.81
2017-08-24T15:39:56.315Z,100154.96
2017-08-24T15:42:23.981Z,100159.86
2017-08-24T15:44:51.809Z,100159.62
2017-08-24T15:47:19.507Z,100160.62
2017-08-24T15:49:47.343Z,100163.56
2017-08-24T15:52:15.085Z,100162.97
2017-08-24T15:54:43.007Z,100163.94
2017-08-24T15:57:10.824Z,100160.45
2017-08-24T15:59:38.433Z,100166.17
2017-08-24T16:02:06.298Z,100162.94
2017-08-24T16:04:34.157Z,100169.91
2017-08-24T16:07:01.829Z,100163.89
2017-08-24T16:09:29.656Z,100158.80
2017-08-24T16:11:57.526Z,100158.03
2017-08-24T16:14:25.219Z,100162.59
2017-08-24T16:16:53.235Z,100159.76
2017-08-24T16:19:20.951Z,100165.97
2017-08-24T16:21:48.771Z,100161.19
2017-08-24T16:24:16.639Z,100159.36
2017-08-24T16:26:44.661Z,100164.67
2017-08-24T16:29:12.375Z,100162.28
2017-08-24T16:31:40.396Z,100165.91
2017-08-24T16:34:08.257Z,100170.05
2017-08-24T16:36:36.098Z,100169.03
2017-08-24T16:39:03.799Z,100170.91
2017-08-24T16:41:31.755Z,100171.70
2017-08-24T16:43:59.580Z,100180.59
2017-08-24T16:46:27.596Z,100178.39
2017-08-24T16:48:55.253Z,100172.00
2017-08-24T16:51:22.919Z,100176.80
2017-08-24T16:53:50.810Z,100181.97
2017-08-24T16:56:18.650Z,100192.69
2017-08-24T16:58:46.311Z,100190.33
2017-08-24T17:01:13.966Z,100192.98
2017-08-24T17:03:41.634Z,100195.44
2017-08-24T17:06:09.300Z,100199.70
2017-08-24T17:08:36.962Z,100192.42
2017-08-24T17:11:04.670Z,100208.77
2017-08-24T17:13:32.262Z,100203.99
2017-08-24T17:16:00.124Z,100205.15
2017-08-24T17:18:28.016Z,100210.27
2017-08-24T17:20:55.747Z,100210.84
2017-08-24T17:23:23.386Z,100209.84
2017-08-24T17:25:51.396Z,100210.34
2017-08-24T17:28:19.285Z,100220.33
2017-08-24T17:30:46.885Z,100220.11
2017-08-24T17:33:14.608Z,100221.03
2017-08-24T17:35:42.411Z,100226.77
2017-08-24T17:38:10.139Z,100229.11
2017-08-24T17:40:37.803Z,100230.98
2017-08-24T17:43:05.515Z,100233.59
2017-08-24T17:45:33.101Z,100237.12
2017-08-24T17:48:00.782Z,100236.97
2017-08-24T17:50:28.492Z,100238.83
2017-08-24T17:52:56.427Z,100242.05
2017-08-24T17:55:24.144Z,100247.71
2017-08-24T17:57:51.950Z,100252.97
2017-08-24T18:00:19.783Z,100256.95
2017-08-24T18:02:47.555Z,100257.67
2017-08-24T18:05:15.138Z,100263.48
2017-08-24T18:07:43.057Z,100265.69
2017-08-24T18:10:10.827Z,100270.50
2017-08-24T18:12:38.461Z,100274.42
2017-08-24T18:15:06.096Z,100273.77
2017-08-24T18:17:34.165Z,100284.22
2017-08-24T18:20:01.828Z,100282.31
2017-08-24T18:22:30.177Z,100290.20
2017-08-24T18:24:57.851Z,100285.41
2017-08-24T18:27:25.488Z,100292.44
2017-08-24T18:29:53.456Z,100291.42
2017-08-24T18:32:21.353Z,100294.59
2017-08-24T18:34:49.149Z,100303.83
2017-08-24T18:37:17.088Z,100302.27
2017-08-24T18:39:45.031Z,100312.23
2017-08-24T18:42:13.041Z,100312.16
2017-08-24T18:44:40.710Z,100314.23
2017-08-24T18:47:08.635Z,100315.95
2017-08-24T18:49:36.596Z,100317.81
2017-08-24T18:52:04.417Z,100321.03
2017-08-24T18:54:32.167Z,100324.82
2017-08-24T18:56:59.831Z,100322.17
2017-08-24T18:59:27.489Z,100324.48
2017-08-24T19:01:55.403Z,100325.64
2017-08-24T19:04:23.021Z,100331.34
2017-08-24T19:06:50.684Z,100327.01
2017-08-24T19:09:18.376Z,100332.87
2017-08-24T19:11:46.005Z,100332.92
2017-08-24T19:14:13.717Z,100329.27
2017-08-24T19:16:41.436Z,100335.06
2017-08-24T19:19:09.202Z,100338.80
2017-08-24T19:21:37.041Z,100342.45
2017-08-24T19:24:05.139Z,100346.91
2017-08-24T19:26:32.974Z,100339.38
2017-08-24T19:29:00.677Z,100344.42
2017-08-24T19:31:28.742Z,100351.09
2017-08-24T19:33:56.808Z,100354.94
2017-08-24T19:36:24.393Z,100355.77
2017-08-24T19:38:52.042Z,100356.34
2017-08-24T19:41:19.855Z,100354.64
2017-08-24T19:43:47.725Z,100359.32
2017-08-24T19:46:15.519Z,100357.57
2017-08-24T19:48:43.192Z,100362.34
2017-08-24T19:51:10.856Z,100364.40
2017-08-24T19:53:38.912Z,100363.36
2017-08-24T19:56:06.591Z,100367.31
2017-08-24T19:58:34.522Z,100376.06
2017-08-24T20:01:02.288Z,100379.02
2017-08-24T20:03:30.151Z,100373.03
2017-08-24T20:05:58.017Z,100375.86
2017-08-24T20:08:25.889Z,100381.84
2017-08-24T20:10:53.711Z,100379.09
2017-08-24T20:13:21.449Z,100378.48
2017-08-24T20:15:50.186Z,100379.55
2017-08-24T20:18:17.784Z,100389.26
2017-08-24T20:20:46.479Z,100386.50
2017-08-24T20:23:14.557Z,100395.44
2017-08-24T20:25:42.211Z,100395.70
2017-08-24T20:28:09.877Z,100391.12
2017-08-24T20:30:37.511Z,100395.25
2017-08-24T20:33:05.122Z,100394.50
2017-08-24T20:35:32.724Z,100392.33
2017-08-24T20:38:00.530Z,100392.82
2017-08-24T20:40:28.260Z,100400.48
2017-08-24T20:42:56.224Z,100402.84
2017-08-24T20:45:23.965Z,100395.52
2017-08-24T20:47:51.592Z,100393.61
2017-08-24T20:50:19.252Z,100392.87
2017-08-24T20:52:47.035Z,100396.30
2017-08-24T20:55:14.649Z,100397.36
2017-08-24T20:57:42.241Z,100396.08
2017-08-24T21:00:09.880Z,100400.65
2017-08-24T21:02:37.563Z,100390.88
2017-08-24T21:05:05.275Z,100392.86
2017-08-24T21:07:33.300Z,100396.36
2017-08-24T21:10:01.168Z,100397.85
2017-08-24T21:12:28.814Z,100407.15
2017-08-24T21:14:56.684Z,100404.41
2017-08-24T21:17:24.410Z,100400.86
2017-08-24T21:19:52.220Z,100406.14
2017-08-24T21:22:20.079Z,100400.45
2017-08-24T21:24:47.750Z,100397.72
2017-08-24T21:27:15.454Z,100401.59
2017-08-24T21:29:43.476Z,100406.87
2017-08-24T21:32:11.151Z,100406.17
2017-08-24T21:34:38.979Z,100396.30
2017-08-24T21:37:07.082Z,100415.70
2017-08-24T21:39:34.913Z,100416.02
2017-08-24T21:42:02.614Z,100413.77
2017-08-24T21:44:30.273Z,100413.70
2017-08-24T21:46:57.939Z,100420.05
2017-08-24T21:49:25.593Z,100416.39
2017-08-24T21:51:53.470Z,100416.51
2017-08-24T21:54:21.263Z,100422.30
2017-08-24T21:56:49.197Z,100424.88
2017-08-24T21:59:16.864Z,100427.52
2017-08-24T22:01:44.490Z,100430.96
2017-08-24T22:04:12.200Z,100439.44
2017-08-24T22:06:40.050Z,100440.95
2017-08-24T22:09:07.704Z,100437.27
2017-08-24T22:11:35.688Z,100439.42
2017-08-24T22:14:03.622Z,100440.02
2017-08-24T22:16:31.308Z,100446.87
2017-08-24T22:18:58.982Z,100442.61
2017-08-24T22:21:27.049Z,100450.87
2017-08-24T22:23:54.766Z,100431.52
2017-08-24T22:26:22.404Z,100448.52
2017-08-24T22:28:50.400Z,100443.79
2017-08-24T22:31:18.096Z,100445.16
2017-08-24T22:33:46.179Z,100442.44
2017-08-24T22:36:14.255Z,100448.41
2017-08-24T22:38:42.560Z,100449.52
2017-08-24T22:41:10.155Z,100451.25
2017-08-24T22:43:39.750Z,100452.53
2017-08-24T22:46:07.548Z,100447.45
2017-08-24T22:48:35.150Z,100449.59
2017-08-24T22:51:03.095Z,100445.30
2017-08-24T22:53:36.286Z,100442.86
2017-08-24T22:56:09.473Z,100443.17
2017-08-24T22:58:42.875Z,100448.74
2017-08-24T23:01:16.426Z,100450.56
2017-08-24T23:03:49.876Z,100456.70
2017-08-24T23:06:17.743Z,100451.81
2017-08-24T23:08:45.448Z,100453.81
2017-08-24T23:11:13.460Z,100446.42
2017-08-24T23:13:41.528Z,100447.66
2017-08-24T23:16:09.370Z,100454.39
2017-08-24T23:18:37.074Z,100454.16
2017-08-24T23:21:05.005Z,100452.63
2017-08-24T23:23:32.994Z,100448.11
2017-08-24T23:26:00.790Z,100450.98
2017-08-24T23:28:28.631Z,100455.47
2017-08-24T23:30:56.278Z,100461.63
2017-08-24T23:33:24.258Z,100452.52
2017-08-24T23:35:52.330Z,100460.96
2017-08-24T23:38:20.122Z,100456.11
2017-08-24T23:40:48.081Z,100461.30
2017-08-24T23:43:15.948Z,100465.30
2017-08-24T23:45:43.727Z,100459.20
2017-08-24T23:48:11.472Z,100470.08
2017-08-24T23:50:39.409Z,100472.14
2017-08-24T23:53:07.431Z,100480.02
2017-08-24T23:55:35.165Z,100474.89
2017-08-24T23:58:03.151Z,100474.28
